NOZ815 ENBO-ENBR
Flight info
| Callsign | NOZ815 |
|---|---|
| Flight time | N/A |
| Altitude | 38000 |
| Route | DISMU DCT LUNUR |
| Aircraft | B738/M-SDE2E3FGHIRWXY/LB1 |
Departure
| Time | 2026-05-05 07:28 |
|---|---|
| Airport | Bodø Airport (ENBO) |
Arrival
| Time | N/A |
|---|---|
| Airport | Bergen Airport, Flesland (ENBR) |
| Time | Latitude | Longitude | Altitude | Speed | Heading |
|---|---|---|---|---|---|
| 2026-05-05 07:04 | 67.27187 | 14.36949 | 41 ft | 0 kts | 296° |
| 2026-05-05 07:22 | 67.27184 | 14.36965 | 40 ft | 2 kts | 296° |
| 2026-05-05 07:22 | 67.27177 | 14.37003 | 38 ft | 2 kts | 293° |
| 2026-05-05 07:22 | 67.27172 | 14.37044 | 41 ft | 2 kts | 252° |
| 2026-05-05 07:23 | 67.27178 | 14.37068 | 41 ft | 1 kts | 206° |
| 2026-05-05 07:23 | 67.27180 | 14.37071 | 41 ft | 0 kts | 205° |
| 2026-05-05 07:25 | 67.27179 | 14.37069 | 41 ft | 1 kts | 205° |
| 2026-05-05 07:25 | 67.27154 | 14.37057 | 41 ft | 6 kts | 174° |
| 2026-05-05 07:25 | 67.27111 | 14.37171 | 39 ft | 12 kts | 109° |
| 2026-05-05 07:26 | 67.27121 | 14.37424 | 42 ft | 17 kts | 78° |
| 2026-05-05 07:26 | 67.27146 | 14.37721 | 43 ft | 17 kts | 78° |
| 2026-05-05 07:26 | 67.27160 | 14.38016 | 44 ft | 16 kts | 88° |
| 2026-05-05 07:26 | 67.27161 | 14.38228 | 44 ft | 6 kts | 96° |
| 2026-05-05 07:27 | 67.27144 | 14.38332 | 44 ft | 6 kts | 128° |
| 2026-05-05 07:27 | 67.27106 | 14.38390 | 43 ft | 7 kts | 166° |
| 2026-05-05 07:27 | 67.27067 | 14.38336 | 43 ft | 7 kts | 244° |
| 2026-05-05 07:27 | 67.27029 | 14.37852 | 45 ft | 68 kts | 258° |
| 2026-05-05 07:28 | 67.26868 | 14.35915 | 35 ft | 149 kts | 257° |
| 2026-05-05 07:28 | 67.26575 | 14.32867 | 444 ft | 184 kts | 256° |
| 2026-05-05 07:28 | 67.26356 | 14.29814 | 1955 ft | 166 kts | 258° |
| 2026-05-05 07:28 | 67.26077 | 14.26813 | 2833 ft | 175 kts | 238° |
| 2026-05-05 07:29 | 67.25166 | 14.24745 | 3626 ft | 182 kts | 219° |
| 2026-05-05 07:29 | 67.24110 | 14.22712 | 4161 ft | 195 kts | 220° |
| 2026-05-05 07:29 | 67.23003 | 14.20507 | 4714 ft | 208 kts | 220° |
| 2026-05-05 07:29 | 67.21817 | 14.18106 | 5247 ft | 225 kts | 221° |
| 2026-05-05 07:30 | 67.20544 | 14.15495 | 5834 ft | 242 kts | 221° |
| 2026-05-05 07:30 | 67.17893 | 14.10005 | 6958 ft | 242 kts | 222° |
| 2026-05-05 07:30 | 67.16580 | 14.07261 | 7768 ft | 246 kts | 221° |
| 2026-05-05 07:31 | 67.15235 | 14.04443 | 8598 ft | 252 kts | 222° |
| 2026-05-05 07:31 | 67.13847 | 14.01535 | 9215 ft | 266 kts | 222° |
| 2026-05-05 07:31 | 67.12373 | 13.98447 | 9784 ft | 280 kts | 221° |
| 2026-05-05 07:31 | 67.10749 | 13.95454 | 10302 ft | 297 kts | 207° |
| 2026-05-05 07:32 | 67.08736 | 13.93756 | 10868 ft | 312 kts | 197° |
| 2026-05-05 07:32 | 67.06594 | 13.92301 | 11414 ft | 325 kts | 196° |
| 2026-05-05 07:32 | 67.04365 | 13.90815 | 11974 ft | 336 kts | 196° |
| 2026-05-05 07:32 | 67.02068 | 13.89270 | 12536 ft | 347 kts | 196° |
| 2026-05-05 07:33 | 66.99696 | 13.87657 | 13156 ft | 357 kts | 196° |
| 2026-05-05 07:33 | 66.97280 | 13.85999 | 13872 ft | 362 kts | 195° |
| 2026-05-05 07:33 | 66.94840 | 13.84318 | 14616 ft | 365 kts | 195° |
| 2026-05-05 07:33 | 66.92375 | 13.82619 | 15321 ft | 370 kts | 195° |
| 2026-05-05 07:34 | 66.89873 | 13.80876 | 16021 ft | 375 kts | 197° |
| 2026-05-05 07:34 | 66.87403 | 13.78634 | 16703 ft | 379 kts | 202° |
| 2026-05-05 07:34 | 66.84881 | 13.76550 | 17374 ft | 384 kts | 191° |
| 2026-05-05 07:34 | 66.82218 | 13.76008 | 18130 ft | 385 kts | 177° |
| 2026-05-05 07:35 | 66.79554 | 13.76943 | 18726 ft | 389 kts | 167° |
| 2026-05-05 07:35 | 66.76903 | 13.78477 | 19367 ft | 392 kts | 167° |
| 2026-05-05 07:35 | 66.74239 | 13.79992 | 20019 ft | 394 kts | 167° |
| 2026-05-05 07:35 | 66.71552 | 13.81481 | 20655 ft | 397 kts | 167° |
| 2026-05-05 07:36 | 66.68845 | 13.82951 | 21271 ft | 399 kts | 167° |
| 2026-05-05 07:36 | 66.66114 | 13.84415 | 21861 ft | 403 kts | 168° |
| 2026-05-05 07:36 | 66.63363 | 13.85881 | 22439 ft | 406 kts | 168° |
| 2026-05-05 07:36 | 66.60593 | 13.87352 | 23000 ft | 409 kts | 168° |
| 2026-05-05 07:37 | 66.57798 | 13.88833 | 23489 ft | 412 kts | 168° |
| 2026-05-05 07:37 | 66.54947 | 13.89701 | 23858 ft | 417 kts | 182° |
| 2026-05-05 07:37 | 66.52097 | 13.88419 | 24260 ft | 419 kts | 200° |
| 2026-05-05 07:37 | 66.49531 | 13.85151 | 24685 ft | 421 kts | 215° |
| 2026-05-05 07:38 | 66.47132 | 13.80933 | 25123 ft | 423 kts | 216° |
| 2026-05-05 07:38 | 66.44727 | 13.76643 | 25498 ft | 426 kts | 216° |
| 2026-05-05 07:38 | 66.42299 | 13.72318 | 25883 ft | 430 kts | 216° |
| 2026-05-05 07:38 | 66.39857 | 13.68001 | 26274 ft | 432 kts | 216° |
| 2026-05-05 07:39 | 66.37385 | 13.63670 | 26654 ft | 435 kts | 216° |
| 2026-05-05 07:39 | 66.34895 | 13.59345 | 27038 ft | 437 kts | 216° |
| 2026-05-05 07:39 | 66.32388 | 13.55017 | 27405 ft | 440 kts | 216° |
| 2026-05-05 07:39 | 66.29858 | 13.50672 | 27731 ft | 444 kts | 216° |
| 2026-05-05 07:40 | 66.27308 | 13.46310 | 28073 ft | 446 kts | 216° |
| 2026-05-05 07:40 | 66.24738 | 13.41926 | 28411 ft | 449 kts | 216° |
| 2026-05-05 07:40 | 66.22158 | 13.37537 | 28735 ft | 451 kts | 216° |
| 2026-05-05 07:40 | 66.19562 | 13.33132 | 29042 ft | 454 kts | 216° |
| 2026-05-05 07:41 | 66.16947 | 13.28703 | 29372 ft | 456 kts | 216° |
| 2026-05-05 07:41 | 66.14329 | 13.24281 | 29750 ft | 457 kts | 216° |
| 2026-05-05 07:41 | 66.11707 | 13.19861 | 30079 ft | 457 kts | 216° |
| 2026-05-05 07:41 | 66.09081 | 13.15448 | 30438 ft | 456 kts | 216° |
| 2026-05-05 07:42 | 66.06458 | 13.11051 | 30787 ft | 456 kts | 216° |
| 2026-05-05 07:42 | 66.03833 | 13.06660 | 31080 ft | 456 kts | 216° |
| 2026-05-05 07:42 | 66.01202 | 13.02273 | 31390 ft | 457 kts | 216° |
| 2026-05-05 07:42 | 65.98568 | 12.97889 | 31710 ft | 457 kts | 216° |
| 2026-05-05 07:43 | 65.95940 | 12.93528 | 32022 ft | 457 kts | 216° |
| 2026-05-05 07:43 | 65.93305 | 12.89165 | 32320 ft | 457 kts | 215° |
| 2026-05-05 07:43 | 65.90668 | 12.84811 | 32639 ft | 457 kts | 215° |
| 2026-05-05 07:43 | 65.88033 | 12.80470 | 32953 ft | 457 kts | 215° |
| 2026-05-05 07:44 | 65.85395 | 12.76136 | 33252 ft | 457 kts | 215° |
| 2026-05-05 07:44 | 65.82793 | 12.71872 | 33564 ft | 457 kts | 215° |
| 2026-05-05 07:44 | 65.80147 | 12.67546 | 33820 ft | 457 kts | 215° |
| 2026-05-05 07:44 | 65.77508 | 12.63242 | 34058 ft | 457 kts | 215° |
| 2026-05-05 07:45 | 65.74865 | 12.58944 | 34310 ft | 456 kts | 215° |
| 2026-05-05 07:45 | 65.72226 | 12.54661 | 34561 ft | 456 kts | 215° |
| 2026-05-05 07:45 | 65.69588 | 12.50392 | 34793 ft | 456 kts | 215° |
| 2026-05-05 07:45 | 65.66948 | 12.46129 | 35038 ft | 456 kts | 215° |
| 2026-05-05 07:46 | 65.64309 | 12.41880 | 35282 ft | 455 kts | 215° |
| 2026-05-05 07:46 | 65.61665 | 12.37632 | 35517 ft | 455 kts | 215° |
| 2026-05-05 07:46 | 65.59024 | 12.33399 | 35735 ft | 455 kts | 215° |
| 2026-05-05 07:46 | 65.56386 | 12.29182 | 35956 ft | 455 kts | 215° |
| 2026-05-05 07:47 | 65.53747 | 12.24974 | 36177 ft | 454 kts | 215° |
| 2026-05-05 07:47 | 65.51107 | 12.20775 | 36392 ft | 454 kts | 215° |
| 2026-05-05 07:47 | 65.48472 | 12.16593 | 36575 ft | 454 kts | 215° |
| 2026-05-05 07:47 | 65.45828 | 12.12408 | 36752 ft | 455 kts | 215° |
| 2026-05-05 07:48 | 65.43186 | 12.08236 | 36956 ft | 454 kts | 215° |
| 2026-05-05 07:48 | 65.40543 | 12.04074 | 37186 ft | 454 kts | 215° |
| 2026-05-05 07:48 | 65.37908 | 11.99933 | 37356 ft | 454 kts | 215° |
| 2026-05-05 07:48 | 65.35260 | 11.95782 | 37514 ft | 454 kts | 215° |
| 2026-05-05 07:49 | 65.32650 | 11.91701 | 37687 ft | 454 kts | 215° |
| 2026-05-05 07:49 | 65.29969 | 11.87519 | 37707 ft | 456 kts | 215° |
| 2026-05-05 07:49 | 65.24646 | 11.79245 | 37720 ft | 455 kts | 215° |
| 2026-05-05 07:50 | 65.19359 | 11.71070 | 37724 ft | 452 kts | 215° |
| 2026-05-05 07:50 | 65.14091 | 11.62963 | 37723 ft | 450 kts | 215° |
| 2026-05-05 07:51 | 65.08845 | 11.54927 | 37737 ft | 448 kts | 215° |
| 2026-05-05 07:51 | 65.03604 | 11.46935 | 37741 ft | 448 kts | 215° |
| 2026-05-05 07:52 | 64.98360 | 11.38979 | 37747 ft | 448 kts | 215° |
| 2026-05-05 07:52 | 64.93094 | 11.31024 | 37752 ft | 449 kts | 214° |
| 2026-05-05 07:53 | 64.87814 | 11.23088 | 37746 ft | 451 kts | 214° |
| 2026-05-05 07:53 | 64.82505 | 11.15146 | 37747 ft | 453 kts | 214° |
| 2026-05-05 07:54 | 64.77177 | 11.07214 | 37746 ft | 454 kts | 214° |
| 2026-05-05 07:54 | 64.71831 | 10.99292 | 37744 ft | 455 kts | 214° |
| 2026-05-05 07:55 | 64.66467 | 10.91381 | 37755 ft | 456 kts | 214° |
| 2026-05-05 07:55 | 64.61092 | 10.83492 | 37761 ft | 457 kts | 214° |
| 2026-05-05 07:56 | 64.55708 | 10.75628 | 37768 ft | 456 kts | 214° |
| 2026-05-05 07:56 | 64.50327 | 10.67804 | 37773 ft | 456 kts | 214° |
| 2026-05-05 07:57 | 64.44951 | 10.60025 | 37770 ft | 455 kts | 214° |
| 2026-05-05 07:57 | 64.39615 | 10.52338 | 37777 ft | 454 kts | 214° |
| 2026-05-05 07:58 | 64.34254 | 10.44652 | 37780 ft | 453 kts | 214° |
| 2026-05-05 07:58 | 64.28901 | 10.37014 | 37787 ft | 452 kts | 214° |
| 2026-05-05 07:59 | 64.23555 | 10.29420 | 37785 ft | 451 kts | 214° |
| 2026-05-05 07:59 | 64.18212 | 10.21864 | 37791 ft | 451 kts | 214° |
| 2026-05-05 08:00 | 64.12873 | 10.14349 | 37810 ft | 450 kts | 214° |
| 2026-05-05 08:00 | 64.07529 | 10.06861 | 37796 ft | 450 kts | 214° |
| 2026-05-05 08:01 | 64.02183 | 9.99404 | 37803 ft | 450 kts | 214° |
| 2026-05-05 08:01 | 63.96836 | 9.91980 | 37814 ft | 450 kts | 214° |
| 2026-05-05 08:02 | 63.91489 | 9.84590 | 37819 ft | 450 kts | 214° |
| 2026-05-05 08:02 | 63.86167 | 9.77267 | 37824 ft | 450 kts | 214° |
| 2026-05-05 08:03 | 63.80812 | 9.69932 | 37834 ft | 450 kts | 214° |
| 2026-05-05 08:03 | 63.75446 | 9.62614 | 37826 ft | 450 kts | 214° |
| 2026-05-05 08:04 | 63.70078 | 9.55326 | 37830 ft | 450 kts | 214° |
| 2026-05-05 08:04 | 63.64703 | 9.48063 | 37828 ft | 450 kts | 214° |
| 2026-05-05 08:05 | 63.59324 | 9.40826 | 37829 ft | 450 kts | 214° |
| 2026-05-05 08:05 | 63.53943 | 9.33619 | 37832 ft | 450 kts | 214° |
| 2026-05-05 08:06 | 63.48567 | 9.26448 | 37835 ft | 450 kts | 214° |
| 2026-05-05 08:06 | 63.44081 | 9.20491 | 37837 ft | 450 kts | 214° |
| 2026-05-05 08:07 | 63.37826 | 9.12220 | 37841 ft | 449 kts | 213° |
| 2026-05-05 08:07 | 63.33322 | 9.06291 | 37858 ft | 449 kts | 213° |
| 2026-05-05 08:08 | 63.27937 | 8.99230 | 37852 ft | 448 kts | 213° |
| 2026-05-05 08:08 | 63.22558 | 8.92208 | 37855 ft | 448 kts | 213° |
| 2026-05-05 08:09 | 63.17180 | 8.85218 | 37860 ft | 448 kts | 213° |
| 2026-05-05 08:09 | 63.11804 | 8.78260 | 37867 ft | 447 kts | 213° |
| 2026-05-05 08:10 | 63.06421 | 8.71324 | 37857 ft | 448 kts | 213° |
| 2026-05-05 08:10 | 63.01041 | 8.64422 | 37871 ft | 447 kts | 213° |
| 2026-05-05 08:11 | 62.95698 | 8.57596 | 37868 ft | 447 kts | 213° |
| 2026-05-05 08:11 | 62.90308 | 8.50739 | 37872 ft | 448 kts | 213° |
| 2026-05-05 08:12 | 62.84904 | 8.43895 | 37867 ft | 448 kts | 213° |
| 2026-05-05 08:12 | 62.79505 | 8.37087 | 37884 ft | 448 kts | 213° |
| 2026-05-05 08:13 | 62.74098 | 8.30296 | 37881 ft | 448 kts | 213° |
| 2026-05-05 08:13 | 62.68727 | 8.23580 | 37881 ft | 448 kts | 213° |